Boulder, Montana
Current Conditions -  °F | °C
As of 1:53 PM on Friday 24 Oct 2014 (Local Time) from KHLN Reporting Station
Broken Clouds Broken Clouds  
Wind Chill: 57°   Ceiling: 6000
Heat Index: 57°   Visibility: 10mi
Dew Point: 36°   Wind: 13mph
Humidity: 45%   Direction: 290°WNW
Pressure: 30.08"   Gusts: NA
Location:  46.24°N, 112.12°W
Report Text: KHLN 241953Z 29011KT 10SM BKN060 14/02 A3008 RMK AO2 SLP195 T01390022
Loading
Personal Weather Stations






























Interactive Weather Map New forecast layout! Learn more

10-Day Weather Forecast

Advertisements
Track Severe Weather on mobile